createdAt,value
2022-12-24T00:01:27.824Z,56.1
2022-12-24T00:06:55.815Z,56.1
2022-12-24T00:12:33.846Z,56.1
2022-12-24T00:17:56.865Z,56
2022-12-24T00:23:36.608Z,55.9
2022-12-24T00:28:44.316Z,55.9
2022-12-24T00:34:30.323Z,55.9
2022-12-24T00:40:07.774Z,55.8
2022-12-24T00:45:45.815Z,55.8
2022-12-24T00:51:28.059Z,55.8
2022-12-24T00:57:05.575Z,55.7
2022-12-24T01:02:28.958Z,55.6
2022-12-24T01:08:08.315Z,55.6
2022-12-24T01:13:45.822Z,55.5
2022-12-24T01:19:24.395Z,55.5
2022-12-24T01:25:02.276Z,55.4
2022-12-24T01:30:40.065Z,55.4
2022-12-24T01:35:48.023Z,55.4
2022-12-24T01:40:55.695Z,55.3
2022-12-24T01:46:23.250Z,55.3
2022-12-24T01:51:45.368Z,55.3
2022-12-24T01:57:23.978Z,55.2
2022-12-24T02:03:02.963Z,55.2
2022-12-24T02:08:41.301Z,55.1
2022-12-24T02:14:03.987Z,55.1
2022-12-24T02:19:26.797Z,55.1
2022-12-24T02:24:49.642Z,55
2022-12-24T02:30:27.749Z,56
2022-12-24T02:35:49.821Z,57.5
2022-12-24T02:41:19.669Z,58.9
2022-12-24T02:47:19.294Z,60.6
2022-12-24T02:52:56.643Z,62.2
2022-12-24T02:58:19.397Z,62.4
2022-12-24T03:03:43.886Z,62.4
2022-12-24T03:09:05.500Z,62.4
2022-12-24T03:14:43.519Z,62.3
2022-12-24T03:20:07.004Z,62.3
2022-12-24T03:25:44.823Z,63.4
2022-12-24T03:31:23.161Z,64.9
2022-12-24T03:36:45.899Z,65.3
2022-12-24T03:42:23.315Z,65.3
2022-12-24T03:48:01.888Z,65.3
2022-12-24T03:53:39.427Z,65.2
2022-12-24T03:59:16.574Z,65.1
2022-12-24T04:04:39.898Z,65.1
2022-12-24T04:10:03.134Z,65.1
2022-12-24T04:15:42.289Z,65
2022-12-24T04:21:20.640Z,64.9
2022-12-24T04:26:58.625Z,64.9
2022-12-24T04:32:20.711Z,64.9
2022-12-24T04:37:43.969Z,64.8
2022-12-24T04:43:10.509Z,64.8
2022-12-24T04:48:33.799Z,64.8
2022-12-24T04:53:56.509Z,64.7
2022-12-24T04:59:18.446Z,64.6
2022-12-24T05:11:05.921Z,64.5
2022-12-24T05:16:52.072Z,64.4
2022-12-24T05:22:29.735Z,64.4
2022-12-24T05:28:08.151Z,64.3
2022-12-24T05:33:31.284Z,64.3
2022-12-24T05:38:54.587Z,64.2
2022-12-24T05:44:36.586Z,64.2
2022-12-24T05:50:01.426Z,64.1
2022-12-24T05:55:40.839Z,64.1
2022-12-24T06:01:03.689Z,64
2022-12-24T06:06:31.948Z,63.9
2022-12-24T06:12:10.342Z,63.9
2022-12-24T06:17:54.061Z,63.8
2022-12-24T06:23:32.387Z,63.8
2022-12-24T06:28:55.263Z,63.7
2022-12-24T06:34:41.762Z,63.6
2022-12-24T06:40:20.053Z,63.6
2022-12-24T06:45:58.651Z,63.5
2022-12-24T06:51:37.043Z,63.4
2022-12-24T06:57:14.880Z,63.4
2022-12-24T07:02:44.647Z,63.3
2022-12-24T07:08:23.004Z,63.3
2022-12-24T07:14:02.458Z,63.3
2022-12-24T07:19:48.754Z,63.2
2022-12-24T07:25:27.624Z,63.1
2022-12-24T07:37:01.757Z,63
2022-12-24T07:42:47.686Z,62.9
2022-12-24T07:48:26.083Z,62.9
2022-12-24T07:54:04.594Z,62.8
2022-12-24T07:59:43.389Z,62.8
2022-12-24T08:05:27.735Z,62.7
2022-12-24T08:11:06.007Z,62.7
2022-12-24T08:16:44.030Z,62.6
2022-12-24T08:22:22.841Z,62.6
2022-12-24T08:28:00.630Z,62.5
2022-12-24T08:33:46.201Z,62.4
2022-12-24T08:39:24.066Z,62.4
2022-12-24T08:45:02.935Z,62.3
2022-12-24T08:50:46.086Z,62.3
2022-12-24T08:56:29.253Z,62.3
2022-12-24T09:02:08.651Z,62.2
2022-12-24T09:07:52.988Z,62.1
2022-12-24T09:13:35.909Z,62.1
2022-12-24T09:19:20.004Z,62
2022-12-24T09:24:47.371Z,61.9
2022-12-24T09:30:10.324Z,61.9
2022-12-24T09:35:54.019Z,61.9
2022-12-24T09:41:36.841Z,61.8
2022-12-24T09:47:02.033Z,61.8
2022-12-24T09:52:41.831Z,61.7
2022-12-24T09:58:04.703Z,61.6
2022-12-24T10:03:29.251Z,61.6
2022-12-24T10:09:07.758Z,61.5
2022-12-24T10:14:35.625Z,61.4
2022-12-24T10:20:14.070Z,61.4
2022-12-24T10:25:56.390Z,61.4
2022-12-24T10:31:40.357Z,61.3
2022-12-24T10:37:18.801Z,61.3
2022-12-24T10:42:46.478Z,61.2
2022-12-24T10:48:30.028Z,61.2
2022-12-24T10:54:12.412Z,61.1
2022-12-24T10:59:50.189Z,61.1
2022-12-24T11:05:31.994Z,61
2022-12-24T11:10:58.176Z,60.9
2022-12-24T11:17:17.254Z,60.9
2022-12-24T11:23:02.692Z,60.8
2022-12-24T11:28:48.185Z,60.8
2022-12-24T11:34:31.984Z,60.7
2022-12-24T11:40:09.790Z,60.7
2022-12-24T11:45:49.880Z,60.6
2022-12-24T11:51:44.851Z,60.6
2022-12-24T11:57:30.162Z,60.5
2022-12-24T12:03:17.098Z,60.4
2022-12-24T12:08:39.735Z,60.4
2022-12-24T12:14:21.083Z,60.4
2022-12-24T12:20:04.858Z,60.3
2022-12-24T12:25:43.231Z,60.3
2022-12-24T12:31:28.483Z,60.2
2022-12-24T12:37:12.711Z,60.1
2022-12-24T12:42:52.814Z,60.1
2022-12-24T12:48:21.059Z,60
2022-12-24T12:54:07.464Z,59.9
2022-12-24T12:59:49.643Z,59.9
2022-12-24T13:05:16.905Z,59.8
2022-12-24T13:11:02.868Z,59.8
2022-12-24T13:16:45.844Z,59.8
2022-12-24T13:22:29.667Z,59.7
2022-12-24T13:28:15.061Z,59.6
2022-12-24T13:33:54.014Z,59.6
2022-12-24T13:39:36.547Z,59.5
2022-12-24T13:45:36.870Z,59.4
2022-12-24T13:50:58.796Z,59.4
2022-12-24T13:56:41.269Z,59.3
2022-12-24T14:02:27.067Z,59.3
2022-12-24T14:07:56.834Z,59.3
2022-12-24T14:13:40.551Z,59.2
2022-12-24T14:19:19.086Z,59.1
2022-12-24T14:24:59.156Z,59.1
2022-12-24T14:30:37.660Z,59.1
2022-12-24T14:36:16.250Z,59
2022-12-24T14:41:39.324Z,58.9
2022-12-24T14:47:22.017Z,58.9
2022-12-24T14:53:38.074Z,58.8
2022-12-24T14:59:48.128Z,58.8
2022-12-24T15:05:30.223Z,58.7
2022-12-24T15:11:13.140Z,58.6
2022-12-24T15:16:42.025Z,58.6
2022-12-24T15:27:33.115Z,58.5
2022-12-24T15:33:18.987Z,58.4
2022-12-24T15:38:41.574Z,58.4
2022-12-24T15:44:04.489Z,58.3
2022-12-24T15:49:13.198Z,58.3
2022-12-24T15:54:29.948Z,58.3
2022-12-24T15:59:58.865Z,58.2
2022-12-24T16:05:08.197Z,58.1
2022-12-24T16:10:15.771Z,58.1
2022-12-24T16:16:01.553Z,58.1
2022-12-24T16:21:42.332Z,58
2022-12-24T16:27:20.844Z,57.9
2022-12-24T16:33:03.299Z,57.9
2022-12-24T16:38:40.866Z,57.8
2022-12-24T16:44:10.649Z,57.8
2022-12-24T16:49:51.973Z,57.7
2022-12-24T16:55:35.716Z,57.7
2022-12-24T17:00:43.385Z,57.6
